sensor_id;sensor_type;location;lat;lon;timestamp;pressure;altitude;pressure_sealevel;temperature;humidity
2339;BME280;1180;51.438;6.978;2024-02-23T00:02:24;97600.63;;;8.60;82.54
2339;BME280;1180;51.438;6.978;2024-02-23T00:04:49;97602.72;;;8.74;81.16
2339;BME280;1180;51.438;6.978;2024-02-23T00:07:15;97624.53;;;8.69;81.66
2339;BME280;1180;51.438;6.978;2024-02-23T00:09:40;97614.00;;;8.72;80.92
2339;BME280;1180;51.438;6.978;2024-02-23T00:12:06;97623.22;;;8.64;79.22
2339;BME280;1180;51.438;6.978;2024-02-23T00:14:31;97634.25;;;8.65;77.79
2339;BME280;1180;51.438;6.978;2024-02-23T00:16:57;97637.16;;;8.52;78.00
2339;BME280;1180;51.438;6.978;2024-02-23T00:19:24;97636.34;;;8.51;78.70
2339;BME280;1180;51.438;6.978;2024-02-23T00:21:50;97649.66;;;8.55;79.95
2339;BME280;1180;51.438;6.978;2024-02-23T00:24:17;97652.31;;;8.53;79.00
2339;BME280;1180;51.438;6.978;2024-02-23T00:26:43;97652.88;;;8.47;79.50
2339;BME280;1180;51.438;6.978;2024-02-23T00:29:08;97664.94;;;8.65;80.07
2339;BME280;1180;51.438;6.978;2024-02-23T00:31:34;97667.41;;;8.75;79.50
2339;BME280;1180;51.438;6.978;2024-02-23T00:34:01;97665.09;;;8.81;79.33
2339;BME280;1180;51.438;6.978;2024-02-23T00:36:26;97684.28;;;8.67;78.83
2339;BME280;1180;51.438;6.978;2024-02-23T00:38:51;97681.72;;;8.67;79.68
2339;BME280;1180;51.438;6.978;2024-02-23T00:41:17;97678.47;;;8.75;78.98
2339;BME280;1180;51.438;6.978;2024-02-23T00:43:42;97699.94;;;8.55;78.40
2339;BME280;1180;51.438;6.978;2024-02-23T00:46:08;97704.22;;;8.64;78.78
2339;BME280;1180;51.438;6.978;2024-02-23T00:48:34;97698.34;;;8.81;78.43
2339;BME280;1180;51.438;6.978;2024-02-23T00:51:00;97707.00;;;8.71;78.21
2339;BME280;1180;51.438;6.978;2024-02-23T00:53:25;97707.44;;;8.66;78.35
2339;BME280;1180;51.438;6.978;2024-02-23T00:55:50;97707.81;;;8.71;77.79
2339;BME280;1180;51.438;6.978;2024-02-23T00:58:16;97713.38;;;8.85;77.79
2339;BME280;1180;51.438;6.978;2024-02-23T01:00:41;97715.84;;;9.04;77.16
2339;BME280;1180;51.438;6.978;2024-02-23T01:03:08;97717.50;;;8.95;76.32
2339;BME280;1180;51.438;6.978;2024-02-23T01:05:33;97717.38;;;8.97;76.86
2339;BME280;1180;51.438;6.978;2024-02-23T01:07:59;97726.41;;;8.91;75.35
2339;BME280;1180;51.438;6.978;2024-02-23T01:10:24;97727.75;;;8.95;74.71
2339;BME280;1180;51.438;6.978;2024-02-23T01:12:49;97731.44;;;8.83;74.99
2339;BME280;1180;51.438;6.978;2024-02-23T01:15:15;97735.16;;;8.89;75.77
2339;BME280;1180;51.438;6.978;2024-02-23T01:17:40;97734.66;;;8.85;75.52
2339;BME280;1180;51.438;6.978;2024-02-23T01:20:06;97738.53;;;8.89;75.56
2339;BME280;1180;51.438;6.978;2024-02-23T01:22:31;97747.41;;;8.95;75.08
2339;BME280;1180;51.438;6.978;2024-02-23T01:24:57;97740.72;;;8.84;75.11
2339;BME280;1180;51.438;6.978;2024-02-23T01:27:22;97750.72;;;8.77;75.13
2339;BME280;1180;51.438;6.978;2024-02-23T01:29:47;97754.25;;;8.66;75.08
2339;BME280;1180;51.438;6.978;2024-02-23T01:32:13;97751.78;;;8.75;75.64
2339;BME280;1180;51.438;6.978;2024-02-23T01:34:38;97763.22;;;8.80;75.20
2339;BME280;1180;51.438;6.978;2024-02-23T01:37:03;97774.34;;;8.89;74.71
2339;BME280;1180;51.438;6.978;2024-02-23T01:39:29;97770.59;;;8.84;74.93
2339;BME280;1180;51.438;6.978;2024-02-23T01:41:54;97768.97;;;8.82;74.62
2339;BME280;1180;51.438;6.978;2024-02-23T01:44:20;97767.53;;;8.80;75.32
2339;BME280;1180;51.438;6.978;2024-02-23T01:46:46;97766.16;;;8.86;75.66
2339;BME280;1180;51.438;6.978;2024-02-23T01:49:13;97763.97;;;8.91;75.07
2339;BME280;1180;51.438;6.978;2024-02-23T01:51:39;97774.31;;;8.99;75.33
2339;BME280;1180;51.438;6.978;2024-02-23T01:54:05;97773.75;;;9.05;75.05
2339;BME280;1180;51.438;6.978;2024-02-23T01:56:32;97769.56;;;9.04;74.45
2339;BME280;1180;51.438;6.978;2024-02-23T01:58:58;97769.41;;;9.06;74.16
2339;BME280;1180;51.438;6.978;2024-02-23T02:01:24;97764.16;;;9.07;74.30
2339;BME280;1180;51.438;6.978;2024-02-23T02:03:50;97780.75;;;9.03;74.01
2339;BME280;1180;51.438;6.978;2024-02-23T02:06:15;97771.75;;;8.99;73.94
2339;BME280;1180;51.438;6.978;2024-02-23T02:08:41;97773.25;;;8.92;74.48
2339;BME280;1180;51.438;6.978;2024-02-23T02:11:06;97776.75;;;8.91;74.55
2339;BME280;1180;51.438;6.978;2024-02-23T02:13:31;97783.63;;;8.90;74.14
2339;BME280;1180;51.438;6.978;2024-02-23T02:16:00;97776.94;;;8.79;74.45
2339;BME280;1180;51.438;6.978;2024-02-23T02:18:25;97785.81;;;8.85;74.40
2339;BME280;1180;51.438;6.978;2024-02-23T02:20:53;97785.28;;;8.81;74.69
2339;BME280;1180;51.438;6.978;2024-02-23T02:23:19;97785.44;;;8.80;73.70
2339;BME280;1180;51.438;6.978;2024-02-23T02:25:44;97787.66;;;8.93;73.76
2339;BME280;1180;51.438;6.978;2024-02-23T02:28:10;97785.25;;;8.91;73.55
2339;BME280;1180;51.438;6.978;2024-02-23T02:30:35;97788.78;;;8.80;73.46
2339;BME280;1180;51.438;6.978;2024-02-23T02:33:00;97802.38;;;8.81;73.99
2339;BME280;1180;51.438;6.978;2024-02-23T02:35:26;97805.59;;;8.83;73.78
2339;BME280;1180;51.438;6.978;2024-02-23T02:37:51;97806.00;;;8.88;73.82
2339;BME280;1180;51.438;6.978;2024-02-23T02:40:17;97804.44;;;8.67;74.32
2339;BME280;1180;51.438;6.978;2024-02-23T02:42:42;97807.06;;;8.86;74.17
2339;BME280;1180;51.438;6.978;2024-02-23T02:45:07;97807.69;;;8.98;73.95
2339;BME280;1180;51.438;6.978;2024-02-23T02:47:33;97802.31;;;8.91;73.83
2339;BME280;1180;51.438;6.978;2024-02-23T02:49:58;97807.59;;;8.89;73.09
2339;BME280;1180;51.438;6.978;2024-02-23T02:52:23;97816.72;;;8.92;73.02
2339;BME280;1180;51.438;6.978;2024-02-23T02:54:49;97816.72;;;8.92;72.82
2339;BME280;1180;51.438;6.978;2024-02-23T02:57:15;97815.94;;;8.91;72.48
2339;BME280;1180;51.438;6.978;2024-02-23T02:59:40;97843.53;;;8.88;72.85
2339;BME280;1180;51.438;6.978;2024-02-23T03:02:06;97829.69;;;8.80;72.19
2339;BME280;1180;51.438;6.978;2024-02-23T03:04:31;97834.31;;;8.67;73.07
2339;BME280;1180;51.438;6.978;2024-02-23T03:06:56;97843.06;;;8.64;72.94
2339;BME280;1180;51.438;6.978;2024-02-23T03:09:21;97839.25;;;8.78;72.63
2339;BME280;1180;51.438;6.978;2024-02-23T03:11:47;97840.47;;;8.74;73.09
2339;BME280;1180;51.438;6.978;2024-02-23T03:14:12;97849.09;;;8.73;72.90
2339;BME280;1180;51.438;6.978;2024-02-23T03:16:38;97849.28;;;8.62;72.88
2339;BME280;1180;51.438;6.978;2024-02-23T03:19:03;97845.63;;;8.64;73.24
2339;BME280;1180;51.438;6.978;2024-02-23T03:21:30;97857.72;;;8.72;73.17
2339;BME280;1180;51.438;6.978;2024-02-23T03:23:55;97849.22;;;8.72;72.21
2339;BME280;1180;51.438;6.978;2024-02-23T03:26:20;97863.78;;;8.71;72.33
2339;BME280;1180;51.438;6.978;2024-02-23T03:28:46;97854.09;;;8.65;72.90
2339;BME280;1180;51.438;6.978;2024-02-23T03:31:11;97855.66;;;8.76;72.01
2339;BME280;1180;51.438;6.978;2024-02-23T03:33:37;97857.97;;;8.79;72.28
2339;BME280;1180;51.438;6.978;2024-02-23T03:36:03;97852.97;;;8.77;72.14
2339;BME280;1180;51.438;6.978;2024-02-23T03:38:28;97862.81;;;8.72;71.99
2339;BME280;1180;51.438;6.978;2024-02-23T03:40:55;97855.81;;;8.74;72.33
2339;BME280;1180;51.438;6.978;2024-02-23T03:43:21;97863.22;;;8.77;71.42
2339;BME280;1180;51.438;6.978;2024-02-23T03:45:46;97862.38;;;8.77;71.58
2339;BME280;1180;51.438;6.978;2024-02-23T03:48:11;97863.47;;;8.84;71.56
2339;BME280;1180;51.438;6.978;2024-02-23T03:50:37;97866.56;;;8.78;71.19
2339;BME280;1180;51.438;6.978;2024-02-23T03:53:02;97864.94;;;8.77;71.72
2339;BME280;1180;51.438;6.978;2024-02-23T03:55:29;97865.66;;;8.69;71.68
2339;BME280;1180;51.438;6.978;2024-02-23T03:57:54;97869.41;;;8.75;71.82
2339;BME280;1180;51.438;6.978;2024-02-23T04:00:19;97868.59;;;8.84;71.44
2339;BME280;1180;51.438;6.978;2024-02-23T04:02:47;97874.38;;;8.76;70.81
2339;BME280;1180;51.438;6.978;2024-02-23T04:05:12;97873.81;;;8.82;71.43
2339;BME280;1180;51.438;6.978;2024-02-23T04:07:37;97878.25;;;8.90;71.70
2339;BME280;1180;51.438;6.978;2024-02-23T04:10:03;97878.84;;;8.74;71.24
2339;BME280;1180;51.438;6.978;2024-02-23T04:12:29;97875.34;;;8.75;71.37
2339;BME280;1180;51.438;6.978;2024-02-23T04:14:56;97871.44;;;8.71;71.53
2339;BME280;1180;51.438;6.978;2024-02-23T04:17:21;97867.00;;;8.73;70.88
2339;BME280;1180;51.438;6.978;2024-02-23T04:19:47;97873.19;;;8.71;71.40
2339;BME280;1180;51.438;6.978;2024-02-23T04:22:12;97881.50;;;8.82;71.08
2339;BME280;1180;51.438;6.978;2024-02-23T04:24:38;97881.88;;;8.98;70.63
2339;BME280;1180;51.438;6.978;2024-02-23T04:27:05;97882.03;;;8.96;70.79
2339;BME280;1180;51.438;6.978;2024-02-23T04:29:30;97878.09;;;8.92;70.38
2339;BME280;1180;51.438;6.978;2024-02-23T04:31:57;97895.50;;;8.88;70.54
2339;BME280;1180;51.438;6.978;2024-02-23T04:34:23;97893.88;;;8.97;70.63
2339;BME280;1180;51.438;6.978;2024-02-23T04:36:48;97893.88;;;8.87;69.49
2339;BME280;1180;51.438;6.978;2024-02-23T04:39:14;97907.34;;;8.79;69.54
2339;BME280;1180;51.438;6.978;2024-02-23T04:41:39;97901.16;;;8.82;69.11
2339;BME280;1180;51.438;6.978;2024-02-23T04:44:04;97904.63;;;8.91;69.39
2339;BME280;1180;51.438;6.978;2024-02-23T04:46:31;97902.34;;;8.88;69.44
2339;BME280;1180;51.438;6.978;2024-02-23T04:48:57;97912.06;;;8.84;69.08
2339;BME280;1180;51.438;6.978;2024-02-23T04:51:22;97908.41;;;8.87;69.42
2339;BME280;1180;51.438;6.978;2024-02-23T04:53:51;97916.59;;;9.00;68.99
2339;BME280;1180;51.438;6.978;2024-02-23T04:56:16;97917.78;;;9.06;68.97
2339;BME280;1180;51.438;6.978;2024-02-23T04:58:43;97923.34;;;8.91;68.96
2339;BME280;1180;51.438;6.978;2024-02-23T05:01:09;97915.00;;;8.89;68.47
2339;BME280;1180;51.438;6.978;2024-02-23T05:03:34;97918.25;;;8.81;67.75
2339;BME280;1180;51.438;6.978;2024-02-23T05:06:00;97917.03;;;8.86;68.59
2339;BME280;1180;51.438;6.978;2024-02-23T05:08:25;97928.19;;;8.94;68.17
2339;BME280;1180;51.438;6.978;2024-02-23T05:10:52;97923.34;;;8.91;68.03
2339;BME280;1180;51.438;6.978;2024-02-23T05:13:18;97925.75;;;8.93;67.79
2339;BME280;1180;51.438;6.978;2024-02-23T05:15:43;97931.56;;;8.95;67.91
2339;BME280;1180;51.438;6.978;2024-02-23T05:18:09;97919.72;;;8.84;69.10
2339;BME280;1180;51.438;6.978;2024-02-23T05:20:34;97928.59;;;8.90;68.52
2339;BME280;1180;51.438;6.978;2024-02-23T05:22:59;97928.06;;;8.86;68.06
2339;BME280;1180;51.438;6.978;2024-02-23T05:25:25;97922.31;;;8.74;68.63
2339;BME280;1180;51.438;6.978;2024-02-23T05:27:51;97923.22;;;8.83;69.09
2339;BME280;1180;51.438;6.978;2024-02-23T05:30:17;97932.09;;;8.89;68.90
2339;BME280;1180;51.438;6.978;2024-02-23T05:32:42;97933.59;;;8.81;68.97
2339;BME280;1180;51.438;6.978;2024-02-23T05:35:07;97934.38;;;8.92;68.44
2339;BME280;1180;51.438;6.978;2024-02-23T05:37:35;97936.34;;;9.08;68.33
2339;BME280;1180;51.438;6.978;2024-02-23T05:40:00;97928.94;;;9.15;67.96
2339;BME280;1180;51.438;6.978;2024-02-23T05:42:29;97933.66;;;9.09;67.09
2339;BME280;1180;51.438;6.978;2024-02-23T05:44:54;97928.06;;;8.96;67.60
2339;BME280;1180;51.438;6.978;2024-02-23T05:47:19;97930.06;;;9.02;67.72
2339;BME280;1180;51.438;6.978;2024-02-23T05:49:46;97926.56;;;9.03;67.54
2339;BME280;1180;51.438;6.978;2024-02-23T05:52:11;97927.34;;;8.94;67.97
2339;BME280;1180;51.438;6.978;2024-02-23T05:54:37;97920.22;;;8.98;67.69
2339;BME280;1180;51.438;6.978;2024-02-23T05:57:02;97914.84;;;9.01;67.89
2339;BME280;1180;51.438;6.978;2024-02-23T05:59:28;97913.88;;;9.12;66.98
2339;BME280;1180;51.438;6.978;2024-02-23T06:01:54;97912.25;;;9.10;66.69
2339;BME280;1180;51.438;6.978;2024-02-23T06:04:25;97915.06;;;9.17;66.11
2339;BME280;1180;51.438;6.978;2024-02-23T06:06:50;97908.09;;;9.09;65.98
2339;BME280;1180;51.438;6.978;2024-02-23T06:09:15;97920.22;;;9.07;66.54
2339;BME280;1180;51.438;6.978;2024-02-23T06:11:41;97916.31;;;9.03;67.00
2339;BME280;1180;51.438;6.978;2024-02-23T06:14:07;97915.13;;;8.88;67.25
2339;BME280;1180;51.438;6.978;2024-02-23T06:16:33;97912.28;;;9.01;67.34
2339;BME280;1180;51.438;6.978;2024-02-23T06:18:58;97907.31;;;8.99;67.13
2339;BME280;1180;51.438;6.978;2024-02-23T06:21:24;97905.13;;;9.04;66.32
2339;BME280;1180;51.438;6.978;2024-02-23T06:23:52;97902.47;;;8.96;66.00
2339;BME280;1180;51.438;6.978;2024-02-23T06:26:18;97899.94;;;8.96;65.50
2339;BME280;1180;51.438;6.978;2024-02-23T06:28:43;97912.44;;;8.99;65.48
2339;BME280;1180;51.438;6.978;2024-02-23T06:31:09;97910.38;;;9.03;66.00
2339;BME280;1180;51.438;6.978;2024-02-23T06:33:35;97910.94;;;9.06;65.75
2339;BME280;1180;51.438;6.978;2024-02-23T06:36:01;97909.41;;;9.14;65.24
2339;BME280;1180;51.438;6.978;2024-02-23T06:38:27;97902.72;;;9.03;65.40
2339;BME280;1180;51.438;6.978;2024-02-23T06:40:52;97897.88;;;9.00;65.67
2339;BME280;1180;51.438;6.978;2024-02-23T06:43:18;97907.31;;;8.99;65.89
2339;BME280;1180;51.438;6.978;2024-02-23T06:45:44;97899.59;;;9.09;64.92
2339;BME280;1180;51.438;6.978;2024-02-23T06:48:09;97889.50;;;9.07;64.92
2339;BME280;1180;51.438;6.978;2024-02-23T06:50:35;97894.34;;;9.10;65.01
2339;BME280;1180;51.438;6.978;2024-02-23T06:53:01;97876.44;;;9.10;64.91
2339;BME280;1180;51.438;6.978;2024-02-23T06:55:27;97877.41;;;9.00;64.57
2339;BME280;1180;51.438;6.978;2024-02-23T06:57:52;97881.06;;;8.97;65.04
2339;BME280;1180;51.438;6.978;2024-02-23T07:00:18;97888.97;;;9.04;64.80
2339;BME280;1180;51.438;6.978;2024-02-23T07:02:43;97881.88;;;8.98;64.61
2339;BME280;1180;51.438;6.978;2024-02-23T07:05:09;97884.41;;;8.98;65.23
2339;BME280;1180;51.438;6.978;2024-02-23T07:07:34;97894.41;;;8.91;64.98
2339;BME280;1180;51.438;6.978;2024-02-23T07:10:00;97885.53;;;8.95;65.30
2339;BME280;1180;51.438;6.978;2024-02-23T07:12:26;97890.88;;;8.92;64.73
2339;BME280;1180;51.438;6.978;2024-02-23T07:14:55;97895.50;;;8.78;65.95
2339;BME280;1180;51.438;6.978;2024-02-23T07:17:21;97893.44;;;8.92;65.96
2339;BME280;1180;51.438;6.978;2024-02-23T07:19:46;97899.88;;;9.06;66.36
2339;BME280;1180;51.438;6.978;2024-02-23T07:22:12;97896.41;;;8.97;65.92
2339;BME280;1180;51.438;6.978;2024-02-23T07:24:41;97890.00;;;9.21;65.54
2339;BME280;1180;51.438;6.978;2024-02-23T07:27:07;97876.13;;;9.23;65.38
2339;BME280;1180;51.438;6.978;2024-02-23T07:29:32;97884.75;;;9.22;64.99
2339;BME280;1180;51.438;6.978;2024-02-23T07:31:58;97891.53;;;9.04;65.15
2339;BME280;1180;51.438;6.978;2024-02-23T07:34:23;97893.56;;;9.00;65.60
2339;BME280;1180;51.438;6.978;2024-02-23T07:36:51;97884.91;;;9.11;66.67
2339;BME280;1180;51.438;6.978;2024-02-23T07:39:17;97895.94;;;9.21;65.29
2339;BME280;1180;51.438;6.978;2024-02-23T07:41:43;97894.91;;;9.04;66.04
2339;BME280;1180;51.438;6.978;2024-02-23T07:44:08;97883.94;;;9.22;65.97
2339;BME280;1180;51.438;6.978;2024-02-23T07:46:33;97888.16;;;9.13;65.29
2339;BME280;1180;51.438;6.978;2024-02-23T07:48:59;97893.78;;;9.17;65.64
2339;BME280;1180;51.438;6.978;2024-02-23T07:51:24;97884.88;;;9.21;65.19
2339;BME280;1180;51.438;6.978;2024-02-23T07:53:49;97895.06;;;9.31;64.83
2339;BME280;1180;51.438;6.978;2024-02-23T07:56:15;97894.00;;;9.33;64.74
2339;BME280;1180;51.438;6.978;2024-02-23T07:58:40;97882.94;;;9.33;64.82
2339;BME280;1180;51.438;6.978;2024-02-23T08:01:05;97881.91;;;9.25;65.00
2339;BME280;1180;51.438;6.978;2024-02-23T08:03:31;97894.28;;;9.30;65.11
2339;BME280;1180;51.438;6.978;2024-02-23T08:05:56;97897.50;;;9.32;64.63
2339;BME280;1180;51.438;6.978;2024-02-23T08:08:22;97887.81;;;9.26;64.86
2339;BME280;1180;51.438;6.978;2024-02-23T08:10:49;97901.19;;;9.20;65.53
2339;BME280;1180;51.438;6.978;2024-02-23T08:13:14;97903.72;;;9.20;65.16
2339;BME280;1180;51.438;6.978;2024-02-23T08:15:40;97901.47;;;9.45;64.40
2339;BME280;1180;51.438;6.978;2024-02-23T08:18:05;97893.16;;;9.43;64.43
2339;BME280;1180;51.438;6.978;2024-02-23T08:20:31;97901.91;;;9.40;64.51
2339;BME280;1180;51.438;6.978;2024-02-23T08:22:56;97904.09;;;9.35;64.28
2339;BME280;1180;51.438;6.978;2024-02-23T08:25:21;97913.47;;;9.44;63.98
2339;BME280;1180;51.438;6.978;2024-02-23T08:27:47;97908.22;;;9.46;63.45
2339;BME280;1180;51.438;6.978;2024-02-23T08:30:14;97911.63;;;9.36;64.24
2339;BME280;1180;51.438;6.978;2024-02-23T08:32:40;97918.75;;;9.43;64.42
2339;BME280;1180;51.438;6.978;2024-02-23T08:35:06;97901.22;;;9.38;63.61
2339;BME280;1180;51.438;6.978;2024-02-23T08:37:32;97916.22;;;9.33;63.96
2339;BME280;1180;51.438;6.978;2024-02-23T08:39:57;97907.84;;;9.41;64.36
2339;BME280;1180;51.438;6.978;2024-02-23T08:42:23;97915.22;;;9.44;63.80
2339;BME280;1180;51.438;6.978;2024-02-23T08:44:48;97909.91;;;9.55;64.30
2339;BME280;1180;51.438;6.978;2024-02-23T08:47:13;97911.34;;;9.67;63.72
2339;BME280;1180;51.438;6.978;2024-02-23T08:49:39;97921.81;;;9.74;63.43
2339;BME280;1180;51.438;6.978;2024-02-23T08:52:04;97924.91;;;9.78;63.74
2339;BME280;1180;51.438;6.978;2024-02-23T08:54:30;97916.13;;;9.80;63.49
2339;BME280;1180;51.438;6.978;2024-02-23T08:56:56;97925.44;;;9.81;62.79
2339;BME280;1180;51.438;6.978;2024-02-23T08:59:22;97925.38;;;9.63;63.77
2339;BME280;1180;51.438;6.978;2024-02-23T09:01:47;97921.03;;;9.74;62.84
2339;BME280;1180;51.438;6.978;2024-02-23T09:04:15;97926.44;;;9.71;63.45
2339;BME280;1180;51.438;6.978;2024-02-23T09:06:41;97909.16;;;9.73;62.92
2339;BME280;1180;51.438;6.978;2024-02-23T09:09:06;97913.63;;;9.71;63.05
2339;BME280;1180;51.438;6.978;2024-02-23T09:11:31;97922.34;;;9.78;62.46
2339;BME280;1180;51.438;6.978;2024-02-23T09:13:57;97926.63;;;9.77;62.61
2339;BME280;1180;51.438;6.978;2024-02-23T09:16:22;97919.25;;;9.74;62.61
2339;BME280;1180;51.438;6.978;2024-02-23T09:18:50;97929.72;;;9.81;62.94
2339;BME280;1180;51.438;6.978;2024-02-23T09:21:15;97929.44;;;9.84;62.54
2339;BME280;1180;51.438;6.978;2024-02-23T09:23:41;97937.31;;;10.01;62.33
2339;BME280;1180;51.438;6.978;2024-02-23T09:26:09;97924.72;;;10.07;62.15
2339;BME280;1180;51.438;6.978;2024-02-23T09:28:38;97928.03;;;10.18;62.12
2339;BME280;1180;51.438;6.978;2024-02-23T09:31:03;97933.94;;;10.18;62.06
2339;BME280;1180;51.438;6.978;2024-02-23T09:33:30;97926.91;;;10.20;61.75
2339;BME280;1180;51.438;6.978;2024-02-23T09:35:55;97937.53;;;10.07;61.55
2339;BME280;1180;51.438;6.978;2024-02-23T09:38:21;97942.16;;;10.04;61.66
2339;BME280;1180;51.438;6.978;2024-02-23T09:40:50;97939.94;;;10.09;61.24
2339;BME280;1180;51.438;6.978;2024-02-23T09:43:16;97953.19;;;10.04;60.95
2339;BME280;1180;51.438;6.978;2024-02-23T09:45:42;97953.13;;;10.14;61.64
2339;BME280;1180;51.438;6.978;2024-02-23T09:48:09;97940.56;;;10.21;61.70
2339;BME280;1180;51.438;6.978;2024-02-23T09:50:37;97945.69;;;10.39;60.54
2339;BME280;1180;51.438;6.978;2024-02-23T09:53:04;97938.38;;;10.44;60.81
2339;BME280;1180;51.438;6.978;2024-02-23T09:55:29;97946.28;;;10.51;60.18
2339;BME280;1180;51.438;6.978;2024-02-23T09:57:57;97944.75;;;10.58;60.28
2339;BME280;1180;51.438;6.978;2024-02-23T10:00:23;97954.03;;;10.59;60.40
2339;BME280;1180;51.438;6.978;2024-02-23T10:02:50;97949.88;;;10.58;60.08
2339;BME280;1180;51.438;6.978;2024-02-23T10:05:16;97946.56;;;10.66;59.63
2339;BME280;1180;51.438;6.978;2024-02-23T10:07:42;97942.31;;;10.57;59.19
2339;BME280;1180;51.438;6.978;2024-02-23T10:10:08;97945.13;;;10.45;59.41
2339;BME280;1180;51.438;6.978;2024-02-23T10:12:34;97952.13;;;10.61;59.91
2339;BME280;1180;51.438;6.978;2024-02-23T10:15:01;97945.97;;;10.72;58.67
2339;BME280;1180;51.438;6.978;2024-02-23T10:17:29;97934.59;;;10.75;59.04
2339;BME280;1180;51.438;6.978;2024-02-23T10:19:55;97939.72;;;10.75;59.05
2339;BME280;1180;51.438;6.978;2024-02-23T10:22:22;97938.03;;;10.83;57.72
2339;BME280;1180;51.438;6.978;2024-02-23T10:24:50;97949.78;;;10.68;58.55
2339;BME280;1180;51.438;6.978;2024-02-23T10:27:16;97931.69;;;10.69;58.29
2339;BME280;1180;51.438;6.978;2024-02-23T10:29:42;97946.31;;;10.77;57.64
2339;BME280;1180;51.438;6.978;2024-02-23T10:32:10;97947.28;;;10.76;57.62
2339;BME280;1180;51.438;6.978;2024-02-23T10:34:39;97928.50;;;10.76;58.47
2339;BME280;1180;51.438;6.978;2024-02-23T10:37:07;97943.97;;;10.84;57.87
2339;BME280;1180;51.438;6.978;2024-02-23T10:39:36;97956.50;;;10.87;57.70
2339;BME280;1180;51.438;6.978;2024-02-23T10:42:03;97953.72;;;10.80;58.46
2339;BME280;1180;51.438;6.978;2024-02-23T10:44:30;97946.72;;;10.91;58.50
2339;BME280;1180;51.438;6.978;2024-02-23T10:46:56;97947.19;;;11.12;57.88
2339;BME280;1180;51.438;6.978;2024-02-23T10:49:23;97951.28;;;11.23;57.27
2339;BME280;1180;51.438;6.978;2024-02-23T10:51:51;97959.34;;;11.37;56.78
2339;BME280;1180;51.438;6.978;2024-02-23T10:54:17;97940.38;;;11.30;57.17
2339;BME280;1180;51.438;6.978;2024-02-23T10:56:49;97951.78;;;11.27;56.71
2339;BME280;1180;51.438;6.978;2024-02-23T10:59:16;97956.25;;;11.25;56.60
2339;BME280;1180;51.438;6.978;2024-02-23T11:01:48;97957.84;;;11.26;57.30
2339;BME280;1180;51.438;6.978;2024-02-23T11:04:15;97958.97;;;11.23;57.23
2339;BME280;1180;51.438;6.978;2024-02-23T11:06:41;97956.91;;;11.27;57.11
2339;BME280;1180;51.438;6.978;2024-02-23T11:09:07;97959.75;;;11.24;56.83
2339;BME280;1180;51.438;6.978;2024-02-23T11:11:36;97964.66;;;11.09;57.36
2339;BME280;1180;51.438;6.978;2024-02-23T11:14:03;97956.47;;;11.05;57.77
2339;BME280;1180;51.438;6.978;2024-02-23T11:16:32;97963.13;;;11.16;57.76
2339;BME280;1180;51.438;6.978;2024-02-23T11:19:04;97962.00;;;11.19;57.21
2339;BME280;1180;51.438;6.978;2024-02-23T11:21:36;97962.09;;;11.35;56.42
2339;BME280;1180;51.438;6.978;2024-02-23T11:24:04;97956.41;;;11.23;56.71
2339;BME280;1180;51.438;6.978;2024-02-23T11:26:30;97948.53;;;11.25;56.90
2339;BME280;1180;51.438;6.978;2024-02-23T11:28:57;97953.31;;;11.20;56.78
2339;BME280;1180;51.438;6.978;2024-02-23T11:31:24;97937.50;;;11.33;56.72
2339;BME280;1180;51.438;6.978;2024-02-23T11:33:51;97950.75;;;11.20;56.89
2339;BME280;1180;51.438;6.978;2024-02-23T11:36:30;97960.06;;;11.21;57.69
2339;BME280;1180;51.438;6.978;2024-02-23T11:38:58;97955.41;;;11.16;56.93
2339;BME280;1180;51.438;6.978;2024-02-23T11:41:25;97953.97;;;11.22;57.08
2339;BME280;1180;51.438;6.978;2024-02-23T11:43:51;97961.44;;;11.33;56.53
2339;BME280;1180;51.438;6.978;2024-02-23T11:46:17;97958.25;;;11.39;56.27
2339;BME280;1180;51.438;6.978;2024-02-23T11:48:43;97959.41;;;11.45;56.17
2339;BME280;1180;51.438;6.978;2024-02-23T11:51:10;97954.34;;;11.27;56.50
2339;BME280;1180;51.438;6.978;2024-02-23T11:53:39;97950.00;;;11.27;56.23
2339;BME280;1180;51.438;6.978;2024-02-23T11:56:07;97933.41;;;11.13;57.11
2339;BME280;1180;51.438;6.978;2024-02-23T11:58:33;97950.09;;;11.18;56.24
2339;BME280;1180;51.438;6.978;2024-02-23T12:01:02;97948.28;;;11.10;56.98
2339;BME280;1180;51.438;6.978;2024-02-23T12:03:31;97951.53;;;11.12;57.12
2339;BME280;1180;51.438;6.978;2024-02-23T12:06:00;97948.84;;;11.22;56.87
2339;BME280;1180;51.438;6.978;2024-02-23T12:08:27;97956.63;;;11.30;56.69
2339;BME280;1180;51.438;6.978;2024-02-23T12:10:56;97953.81;;;11.15;56.32
2339;BME280;1180;51.438;6.978;2024-02-23T12:13:22;97950.38;;;11.06;56.08
2339;BME280;1180;51.438;6.978;2024-02-23T12:15:48;97959.25;;;11.12;56.32
2339;BME280;1180;51.438;6.978;2024-02-23T12:18:16;97953.63;;;11.17;56.18
2339;BME280;1180;51.438;6.978;2024-02-23T12:20:41;97952.72;;;11.26;56.42
2339;BME280;1180;51.438;6.978;2024-02-23T12:23:07;97959.63;;;11.25;56.48
2339;BME280;1180;51.438;6.978;2024-02-23T12:25:33;97954.22;;;11.37;57.26
2339;BME280;1180;51.438;6.978;2024-02-23T12:27:59;97970.16;;;11.14;58.26
2339;BME280;1180;51.438;6.978;2024-02-23T12:30:26;97957.38;;;11.22;57.98
2339;BME280;1180;51.438;6.978;2024-02-23T12:33:11;97968.22;;;11.43;57.12
2339;BME280;1180;51.438;6.978;2024-02-23T12:35:40;97971.47;;;11.53;57.17
2339;BME280;1180;51.438;6.978;2024-02-23T12:38:05;97965.38;;;11.54;57.56
2339;BME280;1180;51.438;6.978;2024-02-23T12:40:31;97962.81;;;11.54;58.11
2339;BME280;1180;51.438;6.978;2024-02-23T12:42:56;97958.28;;;11.48;58.06
2339;BME280;1180;51.438;6.978;2024-02-23T12:45:21;97965.84;;;11.49;57.53
2339;BME280;1180;51.438;6.978;2024-02-23T12:47:47;97966.75;;;11.40;57.08
2339;BME280;1180;51.438;6.978;2024-02-23T12:50:12;97971.41;;;11.36;57.78
2339;BME280;1180;51.438;6.978;2024-02-23T12:52:37;97964.03;;;11.41;57.35
2339;BME280;1180;51.438;6.978;2024-02-23T12:55:03;97977.16;;;11.30;57.08
2339;BME280;1180;51.438;6.978;2024-02-23T12:57:30;97964.91;;;11.24;57.58
2339;BME280;1180;51.438;6.978;2024-02-23T12:59:55;97981.81;;;11.08;57.87
2339;BME280;1180;51.438;6.978;2024-02-23T13:02:20;97978.38;;;11.26;58.18
2339;BME280;1180;51.438;6.978;2024-02-23T13:04:46;97980.03;;;11.27;58.18
2339;BME280;1180;51.438;6.978;2024-02-23T13:07:15;97973.63;;;11.31;57.96
2339;BME280;1180;51.438;6.978;2024-02-23T13:09:42;97971.28;;;11.20;58.36
2339;BME280;1180;51.438;6.978;2024-02-23T13:12:07;97979.41;;;11.33;57.76
2339;BME280;1180;51.438;6.978;2024-02-23T13:14:32;97979.34;;;11.51;56.75
2339;BME280;1180;51.438;6.978;2024-02-23T13:16:58;97973.97;;;11.36;57.18
2339;BME280;1180;51.438;6.978;2024-02-23T13:19:23;97982.63;;;11.35;56.22
2339;BME280;1180;51.438;6.978;2024-02-23T13:21:49;97979.56;;;11.32;56.30
2339;BME280;1180;51.438;6.978;2024-02-23T13:24:15;97977.97;;;11.39;56.38